world map with PVG marked

PVG - Airport

This information may not be accurate or current and is not valid for navigation or flight planning. No warranty of fitness for any purpose is made or implied.

flag of China

Donate via PayPal

Additional information is available on the NEW Great Circle Mapper

Location
City:  Shanghai, Shanghai, China
Name:Pudong International Airport
ICAO / IATA:ZSPD / PVG

Details
Type:Airport (Aerodrome, Airfield)
Use:Public/Civil
Latitude:31°09'N (31.145)
Longitude:121°48'E (121.793)
Elevation:13 ft (4 m)
Runways:4
Longest:13123 × 197 ft (4000 × 60 m)

Time
Timezone:UTC+8 (DST+10)
Local Time:

Weather
METAR:ZSPD  181800Z 16002MPS 8000 NSC 26/25 Q1009 NOSIG
TAF:ZSPD  (expired)

Related Locations
Nearby:
Farthest:COC: 12433 mi / 20008 km
Concordia (San Antonio de Padua de la Concordia) [Comodoro Pierrestegui Airport], E, AR

Find:

   beyond  
but within

Other Information
Maps:
Links:
Sources:

  


 


Great Circle Mapper   Great Circle Mapper
Great Circle Mapper FAQ   Great Circle Mapper FAQ
  Karl's Home Page
KLSē   KLSē Home
   GC on Facebook
Airlines of the World   Airlines of the World
Donate via PayPal


Copyright © 2004-2017, Karl L. Swartz. All rights reserved.
All trademarks mentioned herein belong to their respective owners.

Please see credits for attribution and copyright information.

Karl Swartz <karl@kls2.com>
  Powered by FreeBSD
Valid HTML 4.01!
Labeled with ICRA
hCard Microformat
Geo Microformat